Time;durP1;ratioP1;P1;durP2;ratioP2;P2;SDS_P1;SDS_P2;PMS_P1;PMS_P2;Temp;Humidity;BMP_temperature;BMP_pressure;BME280_temperature;BME280_humidity;BME280_pressure;Samples;Min_cycle;Max_cycle;Signal;HPM_P1;HPM_P2
2023/12/30 00:02:04;;;;;;;2.92;2.60;;;;;;;6.48;71.39;98529.22;5028995;28;20210;-56
2023/12/30 00:04:30;;;;;;;2.55;2.35;;;;;;;6.22;71.60;98486.03;5032368;28;20285;-56
2023/12/30 00:06:56;;;;;;;3.75;2.97;;;;;;;5.86;71.27;98415.97;5032863;28;20325;-56
2023/12/30 00:09:21;;;;;;;3.13;2.42;;;;;;;6.08;71.06;98446.53;5032828;28;20183;-56
2023/12/30 00:11:47;;;;;;;3.55;3.25;;;;;;;6.22;71.56;98485.19;5052777;28;20192;-56
2023/12/30 00:14:12;;;;;;;3.38;2.70;;;;;;;6.21;70.83;98474.09;5052547;28;20285;-56
2023/12/30 00:16:39;;;;;;;2.63;2.42;;;;;;;6.60;70.78;98523.50;5052583;28;20255;-56
2023/12/30 00:19:05;;;;;;;4.88;2.45;;;;;;;6.62;70.35;98513.13;5052586;28;20182;-56
2023/12/30 00:21:31;;;;;;;2.33;2.13;;;;;;;6.50;69.72;98478.59;5052285;28;20707;-56
2023/12/30 00:23:56;;;;;;;2.40;2.20;;;;;;;6.65;70.04;98511.22;5052484;28;20184;-56
2023/12/30 00:26:26;;;;;;;2.55;2.40;;;;;;;6.61;69.97;98517.44;5052312;28;20190;-56
2023/12/30 00:28:52;;;;;;;2.97;2.65;;;;;;;6.04;69.51;98406.50;5052219;28;20192;-56
2023/12/30 00:31:27;;;;;;;3.22;2.38;;;;;;;6.47;69.43;98481.31;5052354;28;20190;-56
2023/12/30 00:33:59;;;;;;;2.63;2.42;;;;;;;6.67;69.77;98530.00;5052120;28;20391;-56
2023/12/30 00:36:25;;;;;;;3.25;2.35;;;;;;;6.00;69.79;98428.94;5052198;28;20735;-56
2023/12/30 00:38:54;;;;;;;2.70;2.50;;;;;;;6.54;70.17;98523.78;5052121;28;20194;-56
2023/12/30 00:41:23;;;;;;;2.55;2.35;;;;;;;6.42;70.41;98513.31;5051927;28;20349;-56
2023/12/30 00:43:48;;;;;;;3.15;2.47;;;;;;;6.08;70.36;98462.78;5051984;28;20672;-56
2023/12/30 00:46:14;;;;;;;2.83;2.38;;;;;;;5.95;70.11;98436.03;5052043;28;20220;-56
2023/12/30 00:48:39;;;;;;;2.25;2.05;;;;;;;5.92;69.80;98431.06;5051958;28;20196;-56
2023/12/30 00:51:05;;;;;;;3.22;2.45;;;;;;;6.25;69.91;98485.91;5051904;28;20192;-56
2023/12/30 00:53:32;;;;;;;2.50;2.25;;;;;;;6.27;70.13;98489.22;5051836;28;20196;-56
2023/12/30 00:55:57;;;;;;;2.15;2.05;;;;;;;6.51;69.66;98538.53;5051833;28;20185;-55
2023/12/30 00:58:23;;;;;;;3.53;2.53;;;;;;;6.28;69.67;98484.88;5051762;28;20178;-55
2023/12/30 01:00:50;;;;;;;2.42;2.28;;;;;;;6.54;69.85;98522.97;5051712;28;20590;-56
2023/12/30 01:03:15;;;;;;;2.63;2.40;;;;;;;6.35;69.71;98489.66;5051751;28;20680;-56
2023/12/30 01:05:41;;;;;;;2.20;2.10;;;;;;;6.57;69.55;98533.09;5036152;28;20204;-56
2023/12/30 01:08:06;;;;;;;2.53;2.33;;;;;;;6.55;69.46;98532.34;5034066;28;20175;-56
2023/12/30 01:10:32;;;;;;;2.97;2.65;;;;;;;6.14;69.51;98457.34;5034089;28;20189;-56
2023/12/30 01:12:57;;;;;;;2.63;2.33;;;;;;;5.96;69.61;98431.75;5033821;28;20261;-55
2023/12/30 01:15:23;;;;;;;2.70;2.40;;;;;;;6.19;69.85;98475.09;5033644;28;20209;-56
2023/12/30 01:17:48;;;;;;;2.63;2.22;;;;;;;5.99;70.71;98462.38;5033919;28;20181;-56
2023/12/30 01:20:14;;;;;;;2.33;2.13;;;;;;;6.27;70.82;98514.91;5033728;28;20201;-56
2023/12/30 01:22:39;;;;;;;3.55;2.88;;;;;;;5.94;70.46;98443.84;5033843;28;20179;-55
2023/12/30 01:25:05;;;;;;;3.35;2.58;;;;;;;6.27;70.83;98509.78;5033577;28;20179;-55
2023/12/30 01:27:31;;;;;;;2.50;2.30;;;;;;;5.66;70.50;98405.00;5033670;28;20178;-56
2023/12/30 01:29:56;;;;;;;2.58;2.33;;;;;;;5.64;71.03;98412.75;5033664;28;20170;-56
2023/12/30 01:32:22;;;;;;;4.43;2.70;;;;;;;5.81;71.50;98458.16;5033284;28;20189;-55
2023/12/30 01:34:47;;;;;;;5.60;2.55;;;;;;;5.61;71.07;98399.25;5033897;28;20189;-56
2023/12/30 01:37:12;;;;;;;2.58;2.30;;;;;;;5.83;70.56;98426.38;5033594;28;20710;-56
2023/12/30 01:39:38;;;;;;;3.20;2.88;;;;;;;5.89;70.73;98433.78;5033510;28;20181;-55
2023/12/30 01:42:03;;;;;;;2.95;2.70;;;;;;;6.35;70.31;98506.81;5033617;28;20209;-56
2023/12/30 01:44:29;;;;;;;2.53;2.13;;;;;;;5.85;70.45;98432.28;5033738;28;20661;-56
2023/12/30 01:46:55;;;;;;;3.97;2.50;;;;;;;6.33;70.15;98501.75;5033366;28;20181;-56
2023/12/30 01:49:20;;;;;;;2.60;2.40;;;;;;;6.32;70.44;98499.25;5033240;28;20240;-56
2023/12/30 01:51:48;;;;;;;2.45;2.25;;;;;;;5.95;70.46;98441.16;5032908;28;20179;-55
2023/12/30 01:54:17;;;;;;;2.60;2.40;;;;;;;6.01;70.78;98453.72;5033094;28;20187;-55
2023/12/30 01:56:43;;;;;;;3.42;2.40;;;;;;;5.62;70.25;98388.91;5033181;28;20178;-56
2023/12/30 01:59:09;;;;;;;2.95;1.98;;;;;;;6.29;70.52;98496.84;5033127;28;20645;-55
2023/12/30 02:01:34;;;;;;;2.53;2.33;;;;;;;5.73;70.34;98396.91;5033026;28;20198;-56
2023/12/30 02:04:00;;;;;;;2.75;2.17;;;;;;;6.09;70.03;98450.75;5030411;28;20190;-56
2023/12/30 02:06:26;;;;;;;2.03;1.83;;;;;;;6.37;69.87;98490.44;5030607;28;20732;-56
2023/12/30 02:08:51;;;;;;;2.03;1.90;;;;;;;6.43;69.49;98494.41;5030517;28;20201;-55
2023/12/30 02:11:17;;;;;;;2.25;2.00;;;;;;;6.31;69.68;98475.31;5030512;28;20186;-55
2023/12/30 02:13:43;;;;;;;4.68;2.55;;;;;;;5.86;70.09;98410.84;5030433;28;20195;-55
2023/12/30 02:16:09;;;;;;;2.42;1.95;;;;;;;6.09;69.88;98431.06;5030396;28;20187;-55
2023/12/30 02:18:34;;;;;;;3.45;2.22;;;;;;;5.72;70.11;98377.25;5030336;28;20269;-55
2023/12/30 02:21:00;;;;;;;2.30;2.10;;;;;;;5.75;70.26;98377.13;5030095;28;20275;-55
2023/12/30 02:23:25;;;;;;;3.40;2.13;;;;;;;5.73;70.31;98368.69;5030593;28;20214;-55
2023/12/30 02:25:50;;;;;;;2.45;1.80;;;;;;;6.09;70.28;98431.06;5029587;28;20326;-56
2023/12/30 02:28:16;;;;;;;2.47;2.10;;;;;;;6.13;70.37;98454.84;5030132;28;20191;-55
2023/12/30 02:30:41;;;;;;;4.00;2.30;;;;;;;5.58;70.71;98378.84;5030102;28;20195;-56
2023/12/30 02:33:07;;;;;;;2.97;2.38;;;;;;;5.59;70.63;98377.97;5030039;28;20185;-56
2023/12/30 02:35:32;;;;;;;4.68;2.10;;;;;;;5.75;70.73;98414.78;5031528;28;20570;-56
2023/12/30 02:37:58;;;;;;;2.25;1.65;;;;;;;5.85;70.78;98432.28;5032411;28;20181;-55
2023/12/30 02:40:24;;;;;;;2.10;1.90;;;;;;;6.19;70.67;98488.75;5032277;28;20253;-56
2023/12/30 02:42:49;;;;;;;2.25;2.05;;;;;;;5.57;70.98;98402.84;5032264;28;20174;-55
2023/12/30 02:45:15;;;;;;;4.10;2.10;;;;;;;5.97;71.36;98470.19;5032312;28;20700;-55
2023/12/30 02:47:40;;;;;;;5.15;3.03;;;;;;;5.30;71.81;98389.63;5032278;28;20656;-55
2023/12/30 02:50:06;;;;;;;3.33;1.88;;;;;;;5.24;72.14;98379.66;5032258;28;20253;-56
2023/12/30 02:52:32;;;;;;;2.08;1.88;;;;;;;5.67;71.91;98440.84;5032187;28;20190;-55
2023/12/30 02:54:59;;;;;;;2.55;2.17;;;;;;;5.59;71.75;98430.09;5032044;28;20206;-55
2023/12/30 02:57:25;;;;;;;2.72;2.45;;;;;;;5.25;72.34;98396.72;5029550;28;20206;-55
2023/12/30 02:59:51;;;;;;;1.92;1.83;;;;;;;5.35;72.17;98394.53;5029654;28;20209;-55
2023/12/30 03:02:16;;;;;;;2.33;1.98;;;;;;;5.64;71.68;98440.13;5029554;28;20213;-55
2023/12/30 03:04:41;;;;;;;2.33;1.88;;;;;;;5.70;71.95;98463.78;5029601;28;20222;-55
2023/12/30 03:07:07;;;;;;;2.15;1.75;;;;;;;5.46;72.63;98436.75;5029430;28;20669;-56
2023/12/30 03:09:33;;;;;;;2.63;2.10;;;;;;;5.26;73.18;98421.44;5029440;28;20186;-56
2023/12/30 03:11:58;;;;;;;2.20;2.00;;;;;;;5.17;73.14;98411.63;5029486;28;20241;-55
2023/12/30 03:14:24;;;;;;;1.90;1.80;;;;;;;5.86;72.73;98507.56;5029465;28;20174;-55
2023/12/30 03:16:49;;;;;;;2.00;1.90;;;;;;;5.39;72.27;98427.69;5029381;28;20194;-56
2023/12/30 03:19:14;;;;;;;2.38;1.85;;;;;;;5.68;72.20;98468.19;5029416;28;20261;-55
2023/12/30 03:21:40;;;;;;;3.63;2.03;;;;;;;5.60;72.05;98474.56;5029147;28;20689;-55
2023/12/30 03:24:05;;;;;;;1.92;1.83;;;;;;;5.74;72.17;98488.41;5029277;28;20222;-55
2023/12/30 03:26:31;;;;;;;2.25;1.75;;;;;;;5.47;72.33;98437.59;5029359;28;20269;-55
2023/12/30 03:28:56;;;;;;;2.22;2.13;;;;;;;5.25;72.89;98411.28;5030794;28;20582;-55
2023/12/30 03:31:23;;;;;;;2.78;1.85;;;;;;;5.49;72.78;98451.97;5031694;28;20178;-55
2023/12/30 03:33:49;;;;;;;3.90;1.70;;;;;;;5.24;72.25;98407.06;5031376;28;20261;-56
2023/12/30 03:36:14;;;;;;;1.83;1.73;;;;;;;5.80;72.59;98495.00;5031636;28;20205;-55
2023/12/30 03:38:40;;;;;;;1.67;1.58;;;;;;;5.36;72.15;98430.38;5035569;28;20179;-56
2023/12/30 03:41:05;;;;;;;1.70;1.60;;;;;;;5.87;72.06;98499.78;5035694;28;20209;-55
2023/12/30 03:43:31;;;;;;;3.42;2.25;;;;;;;5.65;72.07;98452.91;5035703;28;20193;-55
2023/12/30 03:45:56;;;;;;;3.00;1.73;;;;;;;5.47;71.87;98425.56;5035666;28;20271;-56
2023/12/30 03:48:21;;;;;;;1.83;1.73;;;;;;;5.44;71.88;98415.47;5035689;28;20320;-56
2023/12/30 03:50:47;;;;;;;2.78;1.92;;;;;;;5.80;71.36;98457.34;5035543;28;20573;-56
2023/12/30 03:53:12;;;;;;;1.98;1.67;;;;;;;5.66;71.42;98436.59;5035479;28;20272;-56
2023/12/30 03:55:37;;;;;;;1.90;1.80;;;;;;;5.80;71.70;98457.34;5035524;28;20166;-55
2023/12/30 03:58:03;;;;;;;2.00;1.90;;;;;;;6.08;71.54;98506.47;5035458;28;20183;-55
2023/12/30 04:00:28;;;;;;;2.15;1.92;;;;;;;5.88;71.23;98472.38;5035041;28;20566;-55
2023/12/30 04:02:53;;;;;;;2.70;2.50;;;;;;;5.89;71.43;98497.97;5035358;28;20214;-56
2023/12/30 04:05:19;;;;;;;2.53;2.17;;;;;;;6.02;71.75;98526.47;5035233;28;20185;-55
2023/12/30 04:07:45;;;;;;;2.55;2.10;;;;;;;5.76;71.89;98480.66;5035158;28;20717;-56
2023/12/30 04:10:12;;;;;;;2.63;2.20;;;;;;;5.95;71.77;98499.41;5035177;28;20175;-56
2023/12/30 04:12:38;;;;;;;1.95;1.80;;;;;;;6.11;72.11;98524.25;5035190;28;20190;-55
2023/12/30 04:15:05;;;;;;;3.55;2.20;;;;;;;6.02;71.78;98501.63;5035027;28;20186;-56
2023/12/30 04:17:30;;;;;;;1.80;1.70;;;;;;;6.13;71.34;98521.63;5034697;28;20178;-56
2023/12/30 04:19:56;;;;;;;2.05;1.95;;;;;;;6.01;71.59;98497.38;5034809;28;20578;-55
2023/12/30 04:22:21;;;;;;;2.15;2.05;;;;;;;5.69;72.90;98446.72;5034683;28;20213;-55
2023/12/30 04:24:47;;;;;;;4.20;2.42;;;;;;;5.87;72.68;98468.13;5034691;28;20179;-55
2023/12/30 04:27:12;;;;;;;2.55;2.08;;;;;;;6.21;71.82;98520.34;5034869;28;20637;-56
2023/12/30 04:29:37;;;;;;;1.60;1.50;;;;;;;5.94;71.27;98478.03;5034889;28;21229;-55
2023/12/30 04:32:03;;;;;;;2.80;1.90;;;;;;;5.85;71.08;98464.81;5034764;28;20228;-55
2023/12/30 04:34:28;;;;;;;2.20;2.00;;;;;;;5.65;71.30;98441.84;5034756;28;20178;-56
2023/12/30 04:36:54;;;;;;;1.90;1.80;;;;;;;5.54;71.73;98432.06;5034732;28;20227;-56
2023/12/30 04:39:19;;;;;;;1.95;1.85;;;;;;;5.68;71.43;98432.25;5034617;28;20178;-55
2023/12/30 04:41:45;;;;;;;2.53;2.00;;;;;;;6.27;70.38;98532.91;5034571;28;20202;-56
2023/12/30 04:44:10;;;;;;;2.63;1.73;;;;;;;5.69;70.50;98441.59;5034570;28;20178;-55
2023/12/30 04:46:36;;;;;;;2.15;1.95;;;;;;;6.28;70.32;98537.13;5034590;28;20179;-56
2023/12/30 04:49:02;;;;;;;2.10;1.88;;;;;;;6.13;70.63;98517.31;5033745;28;20198;-56
2023/12/30 04:51:28;;;;;;;1.80;1.70;;;;;;;6.15;70.81;98528.34;5034423;28;20182;-56
2023/12/30 04:53:53;;;;;;;2.13;1.75;;;;;;;6.15;70.44;98517.25;5032064;28;20573;-56
2023/12/30 04:56:19;;;;;;;2.03;1.83;;;;;;;5.73;70.51;98445.69;5031877;28;20194;-56
2023/12/30 04:58:44;;;;;;;2.13;1.92;;;;;;;5.77;70.77;98457.44;5031898;28;20178;-56
2023/12/30 05:01:11;;;;;;;2.00;1.90;;;;;;;6.25;70.45;98521.88;5031761;28;20214;-55
2023/12/30 05:03:37;;;;;;;2.95;2.35;;;;;;;5.89;70.53;98469.72;5031783;28;20217;-56
2023/12/30 05:06:02;;;;;;;2.10;1.90;;;;;;;5.94;71.13;98478.03;5031562;28;20225;-56
2023/12/30 05:08:28;;;;;;;1.70;1.60;;;;;;;5.94;70.90;98454.09;5031660;28;20182;-55
2023/12/30 05:10:54;;;;;;;1.67;1.58;;;;;;;6.30;70.26;98513.94;5031593;28;20194;-56
2023/12/30 05:13:19;;;;;;;1.55;1.45;;;;;;;6.06;69.73;98467.16;5031659;28;20198;-56
2023/12/30 05:15:45;;;;;;;1.60;1.60;;;;;;;6.21;70.09;98504.94;5031424;28;20187;-56
2023/12/30 05:18:11;;;;;;;1.85;1.70;;;;;;;6.20;70.17;98500.72;5031535;28;20174;-56
2023/12/30 05:20:37;;;;;;;2.33;1.80;;;;;;;6.22;70.05;98511.72;5031254;28;20218;-55
2023/12/30 05:23:02;;;;;;;3.33;1.77;;;;;;;5.78;70.02;98437.75;5031693;28;20179;-56
2023/12/30 05:25:27;;;;;;;1.75;1.58;;;;;;;6.12;70.08;98500.25;5045291;28;20221;-55
2023/12/30 05:27:53;;;;;;;1.77;1.67;;;;;;;6.13;70.93;98519.88;5051491;28;20554;-56
2023/12/30 05:30:18;;;;;;;4.95;2.63;;;;;;;6.16;73.65;98517.16;5051443;28;20273;-56
2023/12/30 05:32:44;;;;;;;2.35;2.15;;;;;;;6.22;72.93;98532.28;5051068;28;20185;-56
2023/12/30 05:35:09;;;;;;;6.28;3.13;;;;;;;6.08;73.50;98518.44;5051080;28;20300;-56
2023/12/30 05:37:34;;;;;;;7.38;5.10;;;;;;;6.29;76.13;98541.34;5038022;28;20183;-56
2023/12/30 05:40:00;;;;;;;6.25;5.20;;;;;;;6.31;76.96;98536.97;5033872;28;20182;-56
2023/12/30 05:42:25;;;;;;;4.80;4.13;;;;;;;6.42;75.54;98542.38;5033431;28;20214;-56
2023/12/30 05:44:51;;;;;;;6.63;5.22;;;;;;;6.09;76.05;98490.13;5033435;28;20217;-56
2023/12/30 05:47:16;;;;;;;2.85;2.60;;;;;;;6.18;74.71;98496.56;5033115;28;20201;-56
2023/12/30 05:49:41;;;;;;;6.93;4.63;;;;;;;6.28;74.77;98501.16;5033128;28;20187;-56
2023/12/30 05:52:07;;;;;;;5.70;4.47;;;;;;;6.23;75.81;98497.97;5032988;28;20178;-56
2023/12/30 05:54:33;;;;;;;8.23;5.40;;;;;;;6.17;76.65;98502.59;5032977;28;20213;-56
2023/12/30 05:57:00;;;;;;;14.15;7.30;;;;;;;6.46;77.54;98555.94;5032631;28;20569;-56
2023/12/30 05:59:26;;;;;;;10.57;7.60;;;;;;;6.43;77.95;98554.38;5031975;28;20178;-56
2023/12/30 06:01:52;;;;;;;11.10;7.35;;;;;;;6.48;78.56;98554.94;5031671;28;20210;-56
2023/12/30 06:04:17;;;;;;;8.35;6.75;;;;;;;5.89;79.08;98461.19;5032829;28;20209;-56
2023/12/30 06:06:43;;;;;;;7.80;6.40;;;;;;;6.04;79.45;98486.94;5040612;28;20183;-56
2023/12/30 06:09:08;;;;;;;21.08;15.63;;;;;;;6.27;79.55;98530.31;5052528;28;20261;-56
2023/12/30 06:11:34;;;;;;;26.70;17.50;;;;;;;6.30;81.41;98545.56;5052371;28;20181;-56
2023/12/30 06:13:59;;;;;;;17.13;11.88;;;;;;;5.81;81.20;98471.84;5052075;28;20754;-56
2023/12/30 06:16:25;;;;;;;17.73;11.25;;;;;;;6.35;81.58;98548.75;5051953;28;20617;-56
2023/12/30 06:18:50;;;;;;;19.60;13.35;;;;;;;6.39;81.45;98554.56;5049612;28;20558;-56
2023/12/30 06:21:15;;;;;;;35.33;19.02;;;;;;;6.46;81.09;98555.94;5049527;28;20764;-56
2023/12/30 06:23:41;;;;;;;60.50;33.47;;;;;;;6.54;80.87;98562.34;5049691;28;20186;-56
2023/12/30 06:26:06;;;;;;;42.80;25.25;;;;;;;6.03;81.37;98480.16;5049692;28;20280;-56
2023/12/30 06:28:31;;;;;;;23.75;14.88;;;;;;;5.98;81.64;98466.72;5049669;28;20651;-56
2023/12/30 06:30:57;;;;;;;7.03;4.90;;;;;;;6.38;78.57;98540.91;5049541;28;20243;-56
2023/12/30 06:33:23;;;;;;;3.47;3.00;;;;;;;6.48;74.86;98556.69;5049440;28;20186;-56
2023/12/30 06:35:49;;;;;;;2.00;1.90;;;;;;;6.58;71.82;98566.44;5049713;28;20288;-56
2023/12/30 06:38:15;;;;;;;1.60;1.50;;;;;;;6.42;70.69;98508.16;5049354;28;20281;-56
2023/12/30 06:40:45;;;;;;;3.63;2.30;;;;;;;6.81;69.93;98562.72;5049332;28;20660;-56
2023/12/30 06:43:11;;;;;;;2.45;2.25;;;;;;;6.81;69.66;98552.44;5049253;28;20217;-56
2023/12/30 06:45:36;;;;;;;3.05;2.38;;;;;;;6.44;69.40;98481.50;5049226;28;20227;-56
2023/12/30 06:48:03;;;;;;;4.38;2.45;;;;;;;6.93;69.25;98574.94;5049301;28;20181;-56
2023/12/30 06:50:28;;;;;;;3.90;2.33;;;;;;;6.90;68.72;98557.94;5050804;28;20186;-56
2023/12/30 06:52:56;;;;;;;2.22;2.03;;;;;;;6.92;68.62;98574.09;5051635;28;20260;-56
2023/12/30 06:55:22;;;;;;;2.35;2.10;;;;;;;6.58;69.08;98515.03;5051596;28;20172;-56
2023/12/30 06:57:48;;;;;;;8.80;6.25;;;;;;;6.98;72.74;98560.94;5051634;28;20185;-55
2023/12/30 07:00:14;;;;;;;10.98;7.20;;;;;;;6.71;73.70;98531.47;5050872;28;20198;-56
2023/12/30 07:02:41;;;;;;;13.90;9.05;;;;;;;6.93;74.39;98556.94;5051376;28;20557;-56
2023/12/30 07:05:10;;;;;;;13.70;7.50;;;;;;;7.27;73.71;98598.00;5051374;28;20170;-56
2023/12/30 07:07:35;;;;;;;12.30;8.63;;;;;;;7.13;73.06;98557.56;5051363;28;20178;-56
2023/12/30 07:10:03;;;;;;;14.13;8.32;;;;;;;7.38;72.71;98575.94;5051366;28;20235;-56
2023/12/30 07:12:28;;;;;;;16.10;10.50;;;;;;;7.01;72.88;98505.91;5051085;28;20182;-56
2023/12/30 07:14:53;;;;;;;14.23;7.20;;;;;;;7.52;71.07;98588.09;5051110;28;20553;-56
2023/12/30 07:17:19;;;;;;;17.58;7.85;;;;;;;7.18;71.46;98522.09;5051303;28;20223;-56
2023/12/30 07:19:44;;;;;;;13.68;8.30;;;;;;;7.23;71.58;98525.28;5050910;28;20628;-56
2023/12/30 07:22:12;;;;;;;19.17;9.32;;;;;;;7.58;71.98;98588.56;5051152;28;20225;-56
2023/12/30 07:24:38;;;;;;;16.55;8.68;;;;;;;7.65;71.96;98589.09;5051165;28;20268;-56
2023/12/30 07:27:04;;;;;;;10.73;5.97;;;;;;;7.23;69.87;98517.56;5050890;28;20273;-56
2023/12/30 07:29:30;;;;;;;12.57;7.25;;;;;;;7.44;70.38;98538.72;5051149;28;20178;-56
2023/12/30 07:31:55;;;;;;;8.20;4.80;;;;;;;7.85;68.28;98594.81;5051021;28;20251;-56
2023/12/30 07:34:20;;;;;;;4.80;3.60;;;;;;;7.76;67.69;98572.13;5051118;28;20178;-56
2023/12/30 07:36:47;;;;;;;9.20;5.82;;;;;;;8.05;68.36;98607.41;5050867;28;20602;-56
2023/12/30 07:39:13;;;;;;;8.77;5.28;;;;;;;7.73;68.60;98548.28;5051044;28;20235;-57
2023/12/30 07:41:38;;;;;;;4.00;3.58;;;;;;;7.95;66.21;98567.63;5050653;28;20708;-55
2023/12/30 07:44:04;;;;;;;5.28;4.40;;;;;;;7.67;66.09;98521.13;5050764;28;20216;-55
2023/12/30 07:46:29;;;;;;;9.60;6.10;;;;;;;7.77;66.62;98526.59;5050950;28;20201;-55
2023/12/30 07:48:55;;;;;;;7.70;5.47;;;;;;;8.04;66.55;98572.25;5050880;28;20182;-55
2023/12/30 07:51:20;;;;;;;6.07;3.63;;;;;;;8.06;65.62;98580.75;5051003;28;20264;-55
2023/12/30 07:53:46;;;;;;;9.82;5.35;;;;;;;8.36;66.35;98624.63;5050861;28;20698;-55
2023/12/30 07:56:11;;;;;;;14.00;8.30;;;;;;;7.96;67.33;98540.97;5050659;28;20653;-56
2023/12/30 07:58:36;;;;;;;16.70;11.43;;;;;;;8.14;68.27;98555.38;5050766;28;20555;-55
2023/12/30 08:01:02;;;;;;;19.23;10.85;;;;;;;8.64;68.50;98623.00;5048164;28;20209;-56
2023/12/30 08:03:27;;;;;;;18.05;11.63;;;;;;;8.31;69.04;98570.75;5048334;28;20244;-56
2023/12/30 08:05:53;;;;;;;17.08;11.07;;;;;;;8.68;68.88;98618.47;5048282;28;20190;-56
2023/12/30 08:08:19;;;;;;;17.65;10.13;;;;;;;8.46;68.80;98574.19;5046785;28;20205;-55
2023/12/30 08:10:44;;;;;;;14.85;10.20;;;;;;;8.88;68.54;98624.16;5046810;28;20218;-56
2023/12/30 08:13:10;;;;;;;17.35;9.48;;;;;;;8.57;68.10;98556.38;5048514;28;20718;-56
2023/12/30 08:15:35;;;;;;;8.02;5.30;;;;;;;8.76;66.10;98593.91;5048337;28;20797;-56
2023/12/30 08:18:00;;;;;;;9.38;5.20;;;;;;;8.82;65.58;98593.53;5046666;28;20672;-56
2023/12/30 08:20:26;;;;;;;7.75;5.10;;;;;;;9.13;64.49;98647.59;5045671;28;20226;-56
2023/12/30 08:22:51;;;;;;;11.68;5.65;;;;;;;8.73;64.73;98557.94;5046032;28;20609;-55
2023/12/30 08:25:17;;;;;;;6.00;4.85;;;;;;;9.28;64.65;98644.13;5048975;28;20644;-56
2023/12/30 08:27:42;;;;;;;3.10;2.85;;;;;;;9.07;62.41;98588.59;5049598;28;20247;-55
2023/12/30 08:30:08;;;;;;;2.92;2.65;;;;;;;9.41;61.12;98634.72;5049582;28;20268;-56
2023/12/30 08:32:34;;;;;;;3.05;2.60;;;;;;;9.58;60.72;98643.06;5052196;28;20570;-56
2023/12/30 08:35:02;;;;;;;5.28;2.65;;;;;;;9.57;60.40;98639.75;5054408;28;20261;-56
2023/12/30 08:37:28;;;;;;;5.22;3.28;;;;;;;9.45;60.47;98607.78;5054318;28;20261;-56
2023/12/30 08:39:54;;;;;;;4.43;3.15;;;;;;;9.51;60.03;98615.16;5054036;28;20616;-56
2023/12/30 08:42:20;;;;;;;3.35;2.45;;;;;;;9.51;60.04;98615.16;5054216;28;20197;-56
2023/12/30 08:44:45;;;;;;;3.97;2.75;;;;;;;9.22;59.87;98548.13;5054190;28;20254;-56
2023/12/30 08:47:11;;;;;;;5.63;3.17;;;;;;;9.30;59.31;98546.72;5054177;28;20197;-56
2023/12/30 08:49:37;;;;;;;7.80;2.88;;;;;;;9.90;59.27;98644.53;5051595;28;20209;-56
2023/12/30 08:52:03;;;;;;;4.57;2.65;;;;;;;9.94;59.66;98645.16;5051635;28;20190;-56
2023/12/30 08:54:29;;;;;;;5.55;3.90;;;;;;;9.78;59.16;98614.28;5051712;28;20185;-56
2023/12/30 08:56:55;;;;;;;10.18;4.90;;;;;;;9.94;61.01;98609.81;5051562;28;20192;-56
2023/12/30 08:59:21;;;;;;;10.40;5.88;;;;;;;10.26;60.89;98642.25;5051542;28;20189;-56
2023/12/30 09:01:47;;;;;;;13.18;6.60;;;;;;;10.29;61.06;98630.88;5051402;28;20206;-57
2023/12/30 09:04:13;;;;;;;16.40;8.98;;;;;;;10.15;63.33;98587.78;5051413;28;20186;-57
2023/12/30 09:06:38;;;;;;;13.05;7.55;;;;;;;10.11;65.20;98560.47;5051356;28;20231;-56
2023/12/30 09:09:04;;;;;;;11.73;8.55;;;;;;;10.40;65.16;98615.50;5051353;28;20691;-57
2023/12/30 09:11:30;;;;;;;21.05;11.95;;;;;;;10.07;66.92;98538.34;5051288;28;20196;-57
2023/12/30 09:13:55;;;;;;;21.50;10.25;;;;;;;10.65;67.04;98623.31;5051283;28;20177;-56
2023/12/30 09:16:20;;;;;;;18.60;11.15;;;;;;;10.44;67.33;98573.81;5051178;28;20189;-57
2023/12/30 09:18:46;;;;;;;19.23;11.43;;;;;;;10.77;66.28;98614.75;5051214;28;20182;-56
2023/12/30 09:21:12;;;;;;;18.13;9.85;;;;;;;10.79;66.06;98611.13;5052940;28;20287;-58
2023/12/30 09:23:38;;;;;;;16.65;10.57;;;;;;;10.54;65.61;98561.09;5067829;28;20285;-57
2023/12/30 09:26:04;;;;;;;17.63;11.50;;;;;;;10.67;66.02;98574.88;5053443;28;20258;-56
2023/12/30 09:28:29;;;;;;;13.27;10.82;;;;;;;10.65;66.45;98553.47;5053162;28;20303;-56
2023/12/30 09:30:54;;;;;;;18.25;11.43;;;;;;;10.74;66.41;98563.22;5053331;28;20712;-56
2023/12/30 09:33:20;;;;;;;17.42;11.68;;;;;;;10.73;65.39;98546.03;5053305;28;20177;-56
2023/12/30 09:35:45;;;;;;;19.25;12.02;;;;;;;10.81;65.87;98547.16;5052971;28;20663;-55
2023/12/30 09:38:11;;;;;;;20.05;12.07;;;;;;;10.97;65.36;98554.72;5053116;28;20193;-56
2023/12/30 09:40:36;;;;;;;20.30;11.32;;;;;;;10.73;65.71;98509.81;5053137;28;20178;-57
2023/12/30 09:43:05;;;;;;;14.60;10.95;;;;;;;11.29;65.11;98587.84;5053092;28;20563;-57
2023/12/30 09:45:34;;;;;;;18.80;11.10;;;;;;;10.88;64.79;98517.34;5052711;28;20192;-56
2023/12/30 09:48:02;;;;;;;17.70;11.40;;;;;;;11.36;64.64;98599.44;5052937;28;20186;-56
2023/12/30 09:50:29;;;;;;;18.27;11.02;;;;;;;11.04;64.38;98543.03;5052786;28;20607;-56
2023/12/30 09:52:54;;;;;;;16.05;11.30;;;;;;;11.21;64.17;98550.47;5052599;28;20178;-56
2023/12/30 09:55:20;;;;;;;19.08;11.30;;;;;;;11.01;64.15;98514.72;5052843;28;20204;-56
2023/12/30 09:57:45;;;;;;;22.75;11.52;;;;;;;11.06;64.07;98510.06;5052209;28;20201;-56
2023/12/30 10:00:15;;;;;;;22.98;10.98;;;;;;;10.91;63.25;98469.72;5052626;28;20174;-57
2023/12/30 10:02:42;;;;;;;19.00;9.50;;;;;;;11.61;63.08;98576.13;5052626;28;20296;-56
2023/12/30 10:05:08;;;;;;;12.27;9.30;;;;;;;11.41;62.98;98537.78;5052896;28;20174;-56
2023/12/30 10:07:34;;;;;;;15.60;9.95;;;;;;;11.62;63.13;98564.00;5050158;28;20652;-57
2023/12/30 10:09:59;;;;;;;16.25;9.02;;;;;;;11.68;63.23;98568.75;5050086;28;20198;-57
2023/12/30 10:12:25;;;;;;;14.15;9.15;;;;;;;11.47;62.94;98526.16;5050157;28;20204;-57
2023/12/30 10:14:50;;;;;;;13.70;9.23;;;;;;;11.60;62.67;98543.38;5050100;28;20180;-57
2023/12/30 10:17:17;;;;;;;11.48;8.63;;;;;;;11.55;62.52;98534.25;5050010;28;20198;-56
2023/12/30 10:19:42;;;;;;;12.55;8.35;;;;;;;11.64;62.17;98538.78;5049838;28;20185;-57
2023/12/30 10:22:08;;;;;;;13.07;8.73;;;;;;;11.82;61.98;98560.81;5049899;28;20730;-57
2023/12/30 10:24:34;;;;;;;13.50;9.32;;;;;;;11.39;62.38;98479.25;5069730;28;20189;-56
2023/12/30 10:27:04;;;;;;;16.85;9.43;;;;;;;11.40;62.36;98480.91;5069713;28;20200;-57
2023/12/30 10:29:29;;;;;;;16.63;9.55;;;;;;;11.82;62.31;98547.84;5069765;28;20181;-56
2023/12/30 10:32:00;;;;;;;13.25;8.93;;;;;;;11.87;62.21;98551.78;5009905;28;20191;-56
2023/12/30 10:34:26;;;;;;;14.07;8.82;;;;;;;11.44;62.54;98467.59;5010336;28;20270;-56
2023/12/30 10:36:52;;;;;;;12.02;9.48;;;;;;;11.69;62.48;98503.00;5009927;28;20294;-56
2023/12/30 10:39:22;;;;;;;14.68;9.40;;;;;;;11.67;62.32;98515.25;5009985;28;20195;-56
2023/12/30 10:41:48;;;;;;;18.23;9.75;;;;;;;11.91;62.20;98536.84;4990013;28;20226;-56
2023/12/30 10:44:15;;;;;;;14.48;9.25;;;;;;;11.61;62.38;98479.41;4990241;28;20196;-57
2023/12/30 10:46:44;;;;;;;11.88;8.00;;;;;;;11.72;62.29;98479.47;4989641;28;20328;-57
2023/12/30 10:49:14;;;;;;;9.90;7.20;;;;;;;11.55;62.02;98431.41;4990232;28;20172;-57
2023/12/30 10:51:41;;;;;;;11.63;7.80;;;;;;;11.90;61.51;98467.78;4990123;28;20281;-56
2023/12/30 10:54:07;;;;;;;10.18;7.03;;;;;;;12.05;60.97;98477.84;4990151;28;20262;-57
2023/12/30 10:56:51;;;;;;;8.90;6.78;;;;;;;12.33;60.81;98518.16;4990030;28;20257;-57
2023/12/30 10:59:18;;;;;;;10.68;7.30;;;;;;;12.41;60.98;98519.22;4990447;28;20670;-56
2023/12/30 11:01:44;;;;;;;11.02;6.82;;;;;;;12.16;60.11;98467.50;4990453;28;20215;-55
2023/12/30 11:04:14;;;;;;;10.70;7.03;;;;;;;12.10;59.99;98448.97;5029333;28;20265;-55
2023/12/30 11:06:49;;;;;;;9.00;6.65;;;;;;;12.69;58.58;98518.84;5029328;28;20691;-55
2023/12/30 11:09:15;;;;;;;10.00;6.28;;;;;;;12.45;58.50;98463.56;5029345;28;20192;-55
2023/12/30 11:11:49;;;;;;;9.45;6.45;;;;;;;12.72;59.24;98502.19;5030046;28;20182;-56
2023/12/30 11:14:15;;;;;;;10.63;6.40;;;;;;;12.47;60.13;98464.28;5051605;28;20177;-57
2023/12/30 11:16:41;;;;;;;12.13;6.70;;;;;;;12.71;59.99;98492.75;5048794;28;20194;-56
2023/12/30 11:19:06;;;;;;;8.60;6.80;;;;;;;12.81;59.97;98489.34;5049276;28;20185;-57
2023/12/30 11:21:43;;;;;;;11.00;6.38;;;;;;;12.49;60.60;98425.25;5048788;28;20600;-56
2023/12/30 11:24:15;;;;;;;10.15;6.40;;;;;;;12.42;60.81;98411.88;5048856;28;20185;-57
2023/12/30 11:26:42;;;;;;;7.95;5.82;;;;;;;12.74;60.64;98443.19;5048984;28;20197;-56
2023/12/30 11:29:18;;;;;;;7.57;6.05;;;;;;;12.68;60.24;98417.69;5048857;28;20178;-56
2023/12/30 11:31:46;;;;;;;12.05;6.75;;;;;;;13.10;60.47;98477.56;5048756;28;20243;-56